createdAt,value
2019-05-18T00:01:14.903Z,11.53
2019-05-18T00:03:43.870Z,11.30
2019-05-18T00:06:12.817Z,11.33
2019-05-18T00:08:41.814Z,11.40
2019-05-18T00:11:10.975Z,11.97
2019-05-18T00:13:39.980Z,11.67
2019-05-18T00:16:08.956Z,11.83
2019-05-18T00:18:37.959Z,12.40
2019-05-18T00:21:06.982Z,12.07
2019-05-18T00:23:35.951Z,13.20
2019-05-18T00:26:05.023Z,13.20
2019-05-18T00:28:33.990Z,12.87
2019-05-18T00:31:03.018Z,14.23
2019-05-18T00:33:32.058Z,13.83
2019-05-18T00:36:01.064Z,13.43
2019-05-18T00:38:30.075Z,12.77
2019-05-18T00:40:59.110Z,12.87
2019-05-18T00:43:28.075Z,14.47
2019-05-18T00:45:57.059Z,12.87
2019-05-18T00:48:26.026Z,13.33
2019-05-18T00:50:55.127Z,13.53
2019-05-18T00:53:24.187Z,12.70
2019-05-18T00:55:53.150Z,13.47
2019-05-18T00:58:22.109Z,13.27
2019-05-18T01:00:51.223Z,12.70
2019-05-18T01:03:20.329Z,13.10
2019-05-18T01:05:49.283Z,12.27
2019-05-18T01:08:18.288Z,12.67
2019-05-18T01:10:47.290Z,11.87
2019-05-18T01:13:16.309Z,12.23
2019-05-18T01:15:45.334Z,12.10
2019-05-18T01:18:14.336Z,12.53
2019-05-18T01:20:43.403Z,12.73
2019-05-18T01:23:12.406Z,12.17
2019-05-18T01:25:41.369Z,13.07
2019-05-18T01:28:10.332Z,12.73
2019-05-18T01:30:39.293Z,12.53
2019-05-18T01:33:08.289Z,12.60
2019-05-18T01:35:37.303Z,12.10
2019-05-18T01:38:06.301Z,12.53
2019-05-18T01:40:35.403Z,11.50
2019-05-18T01:43:04.440Z,11.20
2019-05-18T01:45:33.372Z,11.23
2019-05-18T01:48:13.263Z,10.00
2019-05-18T01:50:32.942Z,10.77
2019-05-18T01:53:01.953Z,10.00
2019-05-18T01:55:30.892Z,9.90
2019-05-18T01:57:59.883Z,9.80
2019-05-18T02:00:28.919Z,9.80
2019-05-18T02:02:57.959Z,8.93
2019-05-18T02:05:27.004Z,9.10
2019-05-18T02:07:55.960Z,9.10
2019-05-18T02:10:24.929Z,9.27
2019-05-18T02:12:53.874Z,8.50
2019-05-18T02:15:22.863Z,8.43
2019-05-18T02:17:51.833Z,8.90
2019-05-18T02:20:20.811Z,8.73
2019-05-18T02:22:49.846Z,8.97
2019-05-18T02:25:18.909Z,8.97
2019-05-18T02:27:47.895Z,8.90
2019-05-18T02:30:17.698Z,7.90
2019-05-18T02:32:46.926Z,8.83
2019-05-18T02:35:16.171Z,9.17
2019-05-18T02:37:45.155Z,9.20
2019-05-18T02:40:14.207Z,9.30
2019-05-18T02:42:43.218Z,10.40
2019-05-18T02:45:12.271Z,10.77
2019-05-18T02:47:41.271Z,10.53
2019-05-18T02:50:10.468Z,9.70
2019-05-18T02:52:39.427Z,9.63
2019-05-18T02:55:08.528Z,10.70
2019-05-18T02:57:37.592Z,10.37
2019-05-18T03:00:07.472Z,11.23
2019-05-18T03:02:36.439Z,10.97
2019-05-18T03:05:05.969Z,11.30
2019-05-18T03:07:34.940Z,12.43
2019-05-18T03:10:04.200Z,12.10
2019-05-18T03:12:33.267Z,11.87
2019-05-18T03:15:02.232Z,11.97
2019-05-18T03:17:31.178Z,11.33
2019-05-18T03:20:00.148Z,10.80
2019-05-18T03:22:29.248Z,10.03
2019-05-18T03:24:58.243Z,10.37
2019-05-18T03:27:27.250Z,9.90
2019-05-18T03:29:56.226Z,9.47
2019-05-18T03:32:25.222Z,9.77
2019-05-18T03:34:54.210Z,9.87
2019-05-18T03:37:23.271Z,9.87
2019-05-18T03:39:52.383Z,10.73
2019-05-18T03:42:21.412Z,10.00
2019-05-18T03:44:50.359Z,9.53
2019-05-18T03:47:19.368Z,9.03
2019-05-18T03:49:48.311Z,9.70
2019-05-18T03:52:17.315Z,8.57
2019-05-18T03:54:46.288Z,8.90
2019-05-18T03:57:15.314Z,8.97
2019-05-18T03:59:44.308Z,10.87
2019-05-18T04:02:13.248Z,8.40
2019-05-18T04:04:42.251Z,8.90
2019-05-18T04:07:11.236Z,8.90
2019-05-18T04:09:40.188Z,7.57
2019-05-18T04:12:09.187Z,7.50
2019-05-18T04:14:38.179Z,7.43
2019-05-18T04:17:07.182Z,7.13
2019-05-18T04:19:46.399Z,8.20
2019-05-18T04:22:06.877Z,8.13
2019-05-18T04:24:35.822Z,7.07
2019-05-18T04:27:04.923Z,8.00
2019-05-18T04:29:33.928Z,8.03
2019-05-18T04:32:02.892Z,8.13
2019-05-18T04:34:34.754Z,8.83
2019-05-18T04:37:03.736Z,8.67
2019-05-18T04:39:32.791Z,9.17
2019-05-18T04:42:01.759Z,10.33
2019-05-18T04:44:30.762Z,9.07
2019-05-18T04:46:59.705Z,10.23
2019-05-18T04:49:28.709Z,10.07
2019-05-18T04:51:57.679Z,10.47
2019-05-18T04:54:26.630Z,10.83
2019-05-18T04:56:55.628Z,12.40
2019-05-18T04:59:24.632Z,14.10
2019-05-18T05:01:53.631Z,10.60
2019-05-18T05:04:22.591Z,10.27
2019-05-18T05:06:51.596Z,9.57
2019-05-18T05:09:20.587Z,9.67
2019-05-18T05:11:49.584Z,11.30
2019-05-18T05:14:18.535Z,9.33
2019-05-18T05:16:47.480Z,9.73
2019-05-18T05:19:16.461Z,9.63
2019-05-18T05:21:45.449Z,9.10
2019-05-18T05:24:14.416Z,9.80
2019-05-18T05:26:43.456Z,9.07
2019-05-18T05:29:12.421Z,11.27
2019-05-18T05:31:41.431Z,9.00
2019-05-18T05:34:10.423Z,13.30
2019-05-18T05:36:39.487Z,8.53
2019-05-18T05:39:09.377Z,10.40
2019-05-18T05:41:38.366Z,11.10
2019-05-18T05:44:07.366Z,8.87
2019-05-18T05:46:37.453Z,11.30
2019-05-18T05:49:06.534Z,8.00
2019-05-18T05:51:35.484Z,8.30
2019-05-18T05:54:04.504Z,9.30
2019-05-18T05:56:33.446Z,7.67
2019-05-18T05:59:02.447Z,10.23
2019-05-18T06:01:31.415Z,7.77
2019-05-18T06:04:00.403Z,7.20
2019-05-18T06:06:29.398Z,10.60
2019-05-18T06:08:58.353Z,10.63
2019-05-18T06:11:27.324Z,13.23
2019-05-18T06:13:56.319Z,9.40
2019-05-18T06:16:25.324Z,10.90
2019-05-18T06:18:54.323Z,11.53
2019-05-18T06:21:23.331Z,13.43
2019-05-18T06:23:52.286Z,8.60
2019-05-18T06:26:24.164Z,7.23
2019-05-18T06:28:51.881Z,11.67
2019-05-18T06:31:23.045Z,7.50
2019-05-18T06:33:51.438Z,9.27
2019-05-18T06:36:20.421Z,15.53
2019-05-18T06:38:49.392Z,11.70
2019-05-18T06:41:18.418Z,7.77
2019-05-18T06:43:47.410Z,7.53
2019-05-18T06:46:16.415Z,12.30
2019-05-18T06:48:45.415Z,9.63
2019-05-18T06:51:14.407Z,8.33
2019-05-18T06:53:43.511Z,9.83
2019-05-18T06:56:12.732Z,6.90
2019-05-18T06:58:42.011Z,7.33
2019-05-18T07:01:10.966Z,6.97
2019-05-18T07:03:39.941Z,6.97
2019-05-18T07:06:09.086Z,6.97
2019-05-18T07:08:38.083Z,6.77
2019-05-18T07:11:07.087Z,9.07
2019-05-18T07:13:36.033Z,6.40
2019-05-18T07:16:04.987Z,6.90
2019-05-18T07:18:34.070Z,8.67
2019-05-18T07:21:03.101Z,8.57
2019-05-18T07:23:32.095Z,6.03
2019-05-18T07:26:01.107Z,10.70
2019-05-18T07:28:30.055Z,6.63
2019-05-18T07:30:59.111Z,6.00
2019-05-18T07:33:28.093Z,5.83
2019-05-18T07:35:57.053Z,6.00
2019-05-18T07:38:26.059Z,7.30
2019-05-18T07:40:55.027Z,5.80
2019-05-18T07:43:24.015Z,6.63
2019-05-18T07:45:52.964Z,8.17
2019-05-18T07:48:21.967Z,6.33
2019-05-18T07:50:50.915Z,5.97
2019-05-18T07:53:19.901Z,7.00
2019-05-18T07:55:48.899Z,7.17
2019-05-18T07:58:17.844Z,6.37
2019-05-18T08:00:46.852Z,6.83
2019-05-18T08:03:15.802Z,6.53
2019-05-18T08:05:44.797Z,6.27
2019-05-18T08:08:13.780Z,6.20
2019-05-18T08:10:43.793Z,6.10
2019-05-18T08:13:12.907Z,6.70
2019-05-18T08:15:41.920Z,7.10
2019-05-18T08:18:10.933Z,6.07
2019-05-18T08:20:39.884Z,6.87
2019-05-18T08:23:08.915Z,6.50
2019-05-18T08:25:37.883Z,6.57
2019-05-18T08:28:06.975Z,6.20
2019-05-18T08:30:35.918Z,6.83
2019-05-18T08:33:05.043Z,6.43
2019-05-18T08:35:34.095Z,7.53
2019-05-18T08:38:03.087Z,7.57
2019-05-18T08:40:32.032Z,10.10
2019-05-18T08:43:01.035Z,7.00
2019-05-18T08:45:30.089Z,6.13
2019-05-18T08:47:59.079Z,6.50
2019-05-18T08:50:28.027Z,6.90
2019-05-18T08:52:57.031Z,6.63
2019-05-18T08:55:26.076Z,12.20
2019-05-18T08:57:55.022Z,11.93
2019-05-18T09:00:24.046Z,13.13
2019-05-18T09:02:53.094Z,7.03
2019-05-18T09:05:22.188Z,6.70
2019-05-18T09:07:51.174Z,7.47
2019-05-18T09:10:20.265Z,6.20
2019-05-18T09:12:49.222Z,19.40
2019-05-18T09:15:18.327Z,10.57
2019-05-18T09:17:47.287Z,16.60
2019-05-18T09:20:17.294Z,9.23
2019-05-18T09:22:46.245Z,9.63
2019-05-18T09:25:15.304Z,10.27
2019-05-18T09:27:44.299Z,7.07
2019-05-18T09:30:13.478Z,9.20
2019-05-18T09:32:42.469Z,7.13
2019-05-18T09:35:11.651Z,6.97
2019-05-18T09:37:40.649Z,7.20
2019-05-18T09:40:10.597Z,6.73
2019-05-18T09:42:39.575Z,9.37
2019-05-18T09:45:10.135Z,7.37
2019-05-18T09:47:39.114Z,7.50
2019-05-18T09:50:08.271Z,8.73
2019-05-18T09:52:44.914Z,7.73
2019-05-18T09:55:08.587Z,7.53
2019-05-18T09:57:37.673Z,6.87
2019-05-18T10:00:07.105Z,8.17
2019-05-18T10:02:36.107Z,7.03
2019-05-18T10:05:05.409Z,7.27
2019-05-18T10:07:34.407Z,7.50
2019-05-18T10:10:03.491Z,6.73
2019-05-18T10:12:32.602Z,6.60
2019-05-18T10:15:01.962Z,6.73
2019-05-18T10:17:31.255Z,8.13
2019-05-18T10:20:00.304Z,7.07
2019-05-18T10:22:29.325Z,6.83
2019-05-18T10:24:58.314Z,6.60
2019-05-18T10:27:27.269Z,11.57
2019-05-18T10:29:56.262Z,5.87
2019-05-18T10:32:25.219Z,5.80
2019-05-18T10:34:54.259Z,6.13
2019-05-18T10:37:23.315Z,7.37
2019-05-18T10:39:52.303Z,6.63
2019-05-18T10:42:21.295Z,7.13
2019-05-18T10:44:50.248Z,5.87
2019-05-18T10:47:19.239Z,6.50
2019-05-18T10:49:48.188Z,5.47
2019-05-18T10:52:17.282Z,8.40
2019-05-18T10:54:46.231Z,5.90
2019-05-18T10:57:15.318Z,6.00
2019-05-18T10:59:44.273Z,5.50
2019-05-18T11:02:13.311Z,6.27
2019-05-18T11:04:42.309Z,6.17
2019-05-18T11:07:11.302Z,6.03
2019-05-18T11:09:40.258Z,6.13
2019-05-18T11:12:09.259Z,7.27
2019-05-18T11:14:38.259Z,5.43
2019-05-18T11:17:07.251Z,7.33
2019-05-18T11:19:36.294Z,11.83
2019-05-18T11:22:08.114Z,6.57
2019-05-18T11:24:37.073Z,5.83
2019-05-18T11:27:06.067Z,9.20
2019-05-18T11:29:35.038Z,14.90
2019-05-18T11:32:04.062Z,6.30
2019-05-18T11:34:33.020Z,6.63
2019-05-18T11:37:03.184Z,4.63
2019-05-18T11:39:32.380Z,5.37
2019-05-18T11:42:01.372Z,6.27
2019-05-18T11:44:30.323Z,6.07
2019-05-18T11:46:59.320Z,6.73
2019-05-18T11:49:29.182Z,5.70
2019-05-18T11:51:58.280Z,5.37
2019-05-18T11:54:27.269Z,5.77
2019-05-18T11:56:56.237Z,7.17
2019-05-18T11:59:25.230Z,3.50
2019-05-18T12:01:54.224Z,3.70
2019-05-18T12:04:23.287Z,4.17
2019-05-18T12:06:52.284Z,5.73
2019-05-18T12:09:21.219Z,5.00
2019-05-18T12:11:50.308Z,4.70
2019-05-18T12:14:19.297Z,5.33
2019-05-18T12:16:48.803Z,4.77
2019-05-18T12:19:17.786Z,4.57
2019-05-18T12:21:46.837Z,3.90
2019-05-18T12:24:16.199Z,8.13
2019-05-18T12:26:45.250Z,3.93
2019-05-18T12:29:14.367Z,4.23
2019-05-18T12:31:43.314Z,4.00
2019-05-18T12:34:12.272Z,5.30
2019-05-18T12:36:41.269Z,7.37
2019-05-18T12:39:10.221Z,3.90
2019-05-18T12:41:39.222Z,4.87
2019-05-18T12:44:08.248Z,4.07
2019-05-18T12:46:37.265Z,5.40
2019-05-18T12:49:06.335Z,5.00
2019-05-18T12:51:35.778Z,4.80
2019-05-18T12:54:04.907Z,5.83
2019-05-18T12:56:33.860Z,5.47
2019-05-18T12:59:03.057Z,5.30
2019-05-18T13:01:32.055Z,5.20
2019-05-18T13:04:01.056Z,5.40
2019-05-18T13:06:30.003Z,6.40
2019-05-18T13:08:58.985Z,4.90
2019-05-18T13:11:27.946Z,6.70
2019-05-18T13:13:57.839Z,5.27
2019-05-18T13:16:26.812Z,5.00
2019-05-18T13:18:55.810Z,4.57
2019-05-18T13:21:24.751Z,4.50
2019-05-18T13:23:53.698Z,5.10
2019-05-18T13:26:22.667Z,4.40
2019-05-18T13:28:51.658Z,4.43
2019-05-18T13:31:20.702Z,4.30
2019-05-18T13:33:49.663Z,4.60
2019-05-18T13:36:18.616Z,4.60
2019-05-18T13:38:47.597Z,4.40
2019-05-18T13:41:16.563Z,4.30
2019-05-18T13:43:45.549Z,4.77
2019-05-18T13:46:14.493Z,4.10
2019-05-18T13:48:43.481Z,4.83
2019-05-18T13:51:12.529Z,3.77
2019-05-18T13:53:41.502Z,3.63
2019-05-18T13:56:10.455Z,4.83
2019-05-18T13:58:39.428Z,3.70
2019-05-18T14:01:08.524Z,5.10
2019-05-18T14:03:37.524Z,4.90
2019-05-18T14:06:06.546Z,4.07
2019-05-18T14:08:35.535Z,4.33
2019-05-18T14:11:04.485Z,3.40
2019-05-18T14:13:33.490Z,3.60
2019-05-18T14:16:02.435Z,4.30
2019-05-18T14:18:31.431Z,3.57
2019-05-18T14:21:00.422Z,4.43
2019-05-18T14:23:29.423Z,3.77
2019-05-18T14:25:58.407Z,3.67
2019-05-18T14:28:27.354Z,3.73
2019-05-18T14:30:56.363Z,4.53
2019-05-18T14:33:25.324Z,4.07
2019-05-18T14:35:54.287Z,4.97
2019-05-18T14:38:23.279Z,3.97
2019-05-18T14:40:52.300Z,4.67
2019-05-18T14:43:21.267Z,3.97
2019-05-18T14:45:50.213Z,4.50
2019-05-18T14:48:19.211Z,6.20
2019-05-18T14:50:48.155Z,4.43
2019-05-18T14:53:17.111Z,5.70
2019-05-18T14:55:46.112Z,6.77
2019-05-18T14:58:15.127Z,5.33
2019-05-18T15:00:44.072Z,5.10
2019-05-18T15:03:13.057Z,5.13
2019-05-18T15:05:42.107Z,4.87
2019-05-18T15:08:11.191Z,4.87
2019-05-18T15:10:40.135Z,4.97
2019-05-18T15:13:09.137Z,5.13
2019-05-18T15:15:38.138Z,4.90
2019-05-18T15:18:07.199Z,9.37
2019-05-18T15:20:36.171Z,4.77
2019-05-18T15:23:05.139Z,5.90
2019-05-18T15:25:48.206Z,5.30
2019-05-18T15:28:05.031Z,5.67
2019-05-18T15:30:33.965Z,5.27
2019-05-18T15:33:02.965Z,6.60
2019-05-18T15:35:31.923Z,4.40
2019-05-18T15:38:00.911Z,4.37
2019-05-18T15:40:29.858Z,4.73
2019-05-18T15:42:58.946Z,6.70
2019-05-18T15:45:27.940Z,5.50
2019-05-18T15:47:56.931Z,5.47
2019-05-18T15:50:25.987Z,7.77
2019-05-18T15:52:54.966Z,4.33
2019-05-18T15:55:23.931Z,3.97
2019-05-18T15:57:52.947Z,5.40
2019-05-18T16:00:22.181Z,4.77
2019-05-18T16:02:51.175Z,4.13
2019-05-18T16:05:20.277Z,4.10
2019-05-18T16:07:49.283Z,4.33
2019-05-18T16:10:19.350Z,4.57
2019-05-18T16:12:48.302Z,4.30
2019-05-18T16:15:17.440Z,4.50
2019-05-18T16:17:46.491Z,4.17
2019-05-18T16:20:15.555Z,4.07
2019-05-18T16:22:44.754Z,4.30
2019-05-18T16:25:14.224Z,3.77
2019-05-18T16:27:43.191Z,5.50
2019-05-18T16:30:12.253Z,6.23
2019-05-18T16:32:41.256Z,4.17
2019-05-18T16:35:10.534Z,4.10
2019-05-18T16:37:39.542Z,4.20
2019-05-18T16:40:08.711Z,5.27
2019-05-18T16:42:37.759Z,4.43
2019-05-18T16:45:06.923Z,5.63
2019-05-18T16:47:35.948Z,5.53
2019-05-18T16:50:05.111Z,5.10
2019-05-18T16:52:34.114Z,5.67
2019-05-18T16:55:03.058Z,4.83
2019-05-18T16:57:32.047Z,3.87
2019-05-18T17:00:01.303Z,4.20
2019-05-18T17:02:32.027Z,6.53
2019-05-18T17:05:00.952Z,4.50
2019-05-18T17:07:29.966Z,4.13
2019-05-18T17:09:58.935Z,6.40
2019-05-18T17:12:27.879Z,5.43
2019-05-18T17:14:56.857Z,5.97
2019-05-18T17:17:25.819Z,4.43
2019-05-18T17:19:54.889Z,4.97
2019-05-18T17:22:23.835Z,4.80
2019-05-18T17:24:52.817Z,4.57
2019-05-18T17:27:21.783Z,6.03
2019-05-18T17:29:50.775Z,6.13
2019-05-18T17:32:19.776Z,6.00
2019-05-18T17:34:48.729Z,4.40
2019-05-18T17:37:17.711Z,6.40
2019-05-18T17:39:46.706Z,4.63
2019-05-18T17:42:15.662Z,5.07
2019-05-18T17:44:44.672Z,5.17
2019-05-18T17:47:13.606Z,6.63
2019-05-18T17:49:42.636Z,5.83
2019-05-18T17:52:11.677Z,8.53
2019-05-18T17:54:40.653Z,4.70
2019-05-18T17:57:09.676Z,6.90
2019-05-18T17:59:38.675Z,6.00
2019-05-18T18:02:07.661Z,5.83
2019-05-18T18:04:36.643Z,6.40
2019-05-18T18:07:05.647Z,5.57
2019-05-18T18:09:34.651Z,4.80
2019-05-18T18:12:03.727Z,6.60
2019-05-18T18:14:32.672Z,7.40
2019-05-18T18:17:01.666Z,5.77
2019-05-18T18:19:30.606Z,6.90
2019-05-18T18:21:59.597Z,8.50
2019-05-18T18:24:28.555Z,12.90
2019-05-18T18:26:57.511Z,10.40
2019-05-18T18:29:26.670Z,12.63
2019-05-18T18:31:55.778Z,12.87
2019-05-18T18:34:24.767Z,7.23
2019-05-18T18:36:53.802Z,8.23
2019-05-18T18:39:22.807Z,11.97
2019-05-18T18:41:51.795Z,5.53
2019-05-18T18:44:20.784Z,9.17
2019-05-18T18:46:49.835Z,6.87
2019-05-18T18:49:18.842Z,8.17
2019-05-18T18:51:47.816Z,6.07
2019-05-18T18:54:16.810Z,10.27
2019-05-18T18:56:45.752Z,7.00
2019-05-18T18:59:14.750Z,8.97
2019-05-18T19:01:43.716Z,5.77
2019-05-18T19:04:12.795Z,6.97
2019-05-18T19:06:41.774Z,6.70
2019-05-18T19:09:10.724Z,8.53
2019-05-18T19:11:39.703Z,6.30
2019-05-18T19:14:08.807Z,9.67
2019-05-18T19:16:37.811Z,12.93
2019-05-18T19:19:06.799Z,9.30
2019-05-18T19:21:35.781Z,10.80
2019-05-18T19:24:04.856Z,10.60
2019-05-18T19:26:33.877Z,8.40
2019-05-18T19:29:02.801Z,14.77
2019-05-18T19:31:31.808Z,16.13
2019-05-18T19:34:00.768Z,8.07
2019-05-18T19:36:29.758Z,10.23
2019-05-18T19:38:58.706Z,9.37
2019-05-18T19:41:27.659Z,9.30
2019-05-18T19:43:56.622Z,11.03
2019-05-18T19:46:25.614Z,7.87
2019-05-18T19:48:54.572Z,9.57
2019-05-18T19:51:23.534Z,8.60
2019-05-18T19:53:52.526Z,13.43
2019-05-18T19:56:21.526Z,18.30
2019-05-18T19:58:50.481Z,19.47
2019-05-18T20:01:19.476Z,12.00
2019-05-18T20:03:48.426Z,10.50
2019-05-18T20:06:17.453Z,10.97
2019-05-18T20:08:46.471Z,11.43
2019-05-18T20:11:15.520Z,9.93
2019-05-18T20:13:44.521Z,13.13
2019-05-18T20:16:13.522Z,10.37
2019-05-18T20:18:42.487Z,13.60
2019-05-18T20:21:11.463Z,14.00
2019-05-18T20:23:40.466Z,11.53
2019-05-18T20:26:09.511Z,12.77
2019-05-18T20:28:38.530Z,18.63
2019-05-18T20:31:07.478Z,11.57
2019-05-18T20:33:36.454Z,10.87
2019-05-18T20:36:05.463Z,11.47
2019-05-18T20:38:34.417Z,8.90
2019-05-18T20:41:03.381Z,8.87
2019-05-18T20:43:32.322Z,10.67
2019-05-18T20:46:01.327Z,8.33
2019-05-18T20:48:30.287Z,8.67
2019-05-18T20:50:59.283Z,8.47
2019-05-18T20:53:28.275Z,13.33
2019-05-18T20:55:57.282Z,8.60
2019-05-18T20:58:38.612Z,8.53
2019-05-18T21:00:57.023Z,9.07
2019-05-18T21:03:25.968Z,8.60
2019-05-18T21:05:54.951Z,8.70
2019-05-18T21:08:23.923Z,8.97
2019-05-18T21:10:52.925Z,8.43
2019-05-18T21:13:21.895Z,14.37
2019-05-18T21:15:50.858Z,10.50
2019-05-18T21:18:19.863Z,8.53
2019-05-18T21:20:48.857Z,9.07
2019-05-18T21:23:17.790Z,9.77
2019-05-18T21:25:46.978Z,7.97
2019-05-18T21:28:15.918Z,8.70
2019-05-18T21:30:45.027Z,9.50
2019-05-18T21:33:14.006Z,8.37
2019-05-18T21:35:42.954Z,11.57
2019-05-18T21:38:11.944Z,8.67
2019-05-18T21:40:40.902Z,11.17
2019-05-18T21:43:09.849Z,9.43
2019-05-18T21:45:38.847Z,13.67
2019-05-18T21:48:07.818Z,8.40
2019-05-18T21:50:36.827Z,8.90
2019-05-18T21:53:05.784Z,7.97
2019-05-18T21:55:34.783Z,8.43
2019-05-18T21:58:03.880Z,8.83
2019-05-18T22:00:33.265Z,8.50
2019-05-18T22:03:02.481Z,8.43
2019-05-18T22:05:31.448Z,11.67
2019-05-18T22:08:00.378Z,7.83
2019-05-18T22:10:29.383Z,8.33
2019-05-18T22:12:58.334Z,8.57
2019-05-18T22:15:28.058Z,8.97
2019-05-18T22:18:03.305Z,9.60
2019-05-18T22:20:32.801Z,8.80
2019-05-18T22:23:01.738Z,9.30
2019-05-18T22:25:30.744Z,8.87
2019-05-18T22:27:59.708Z,8.70
2019-05-18T22:30:28.711Z,10.70
2019-05-18T22:32:57.775Z,9.17
2019-05-18T22:35:26.781Z,9.30
2019-05-18T22:37:55.778Z,8.80
2019-05-18T22:40:24.872Z,9.10
2019-05-18T22:42:53.857Z,8.97
2019-05-18T22:45:22.870Z,8.87
2019-05-18T22:47:51.879Z,9.53
2019-05-18T22:50:20.956Z,9.13
2019-05-18T22:52:49.999Z,10.87
2019-05-18T22:55:18.948Z,9.67
2019-05-18T22:57:47.907Z,8.90
2019-05-18T23:00:17.307Z,9.27
2019-05-18T23:02:46.256Z,9.90
2019-05-18T23:05:15.341Z,10.30
2019-05-18T23:07:44.364Z,9.37
2019-05-18T23:10:13.424Z,10.17
2019-05-18T23:12:42.470Z,8.47
2019-05-18T23:15:11.410Z,9.73
2019-05-18T23:17:40.414Z,8.93
2019-05-18T23:20:09.499Z,8.93
2019-05-18T23:22:38.451Z,8.77
2019-05-18T23:25:07.556Z,9.10
2019-05-18T23:27:36.515Z,10.30
2019-05-18T23:30:05.748Z,8.80
2019-05-18T23:32:34.710Z,8.93
2019-05-18T23:35:03.684Z,8.63
2019-05-18T23:37:32.652Z,9.53
2019-05-18T23:40:01.746Z,8.87
2019-05-18T23:42:30.767Z,8.37
2019-05-18T23:44:59.723Z,9.80
2019-05-18T23:47:28.722Z,8.77
2019-05-18T23:49:57.667Z,7.70
2019-05-18T23:52:26.697Z,7.17
2019-05-18T23:54:55.779Z,7.80
2019-05-18T23:57:24.777Z,7.70
2019-05-18T23:59:53.747Z,7.30
